sensor_id;sensor_type;location;lat;lon;timestamp;temperature;humidity
21857;DHT22;11093;50.862;4.328;2022-07-23T00:01:23;17.40;99.90
21857;DHT22;11093;50.862;4.328;2022-07-23T00:03:50;17.30;99.90
21857;DHT22;11093;50.862;4.328;2022-07-23T00:06:17;17.40;99.90
21857;DHT22;11093;50.862;4.328;2022-07-23T00:08:43;17.40;99.90
21857;DHT22;11093;50.862;4.328;2022-07-23T00:11:09;17.50;99.90
21857;DHT22;11093;50.862;4.328;2022-07-23T00:13:34;17.60;99.90
21857;DHT22;11093;50.862;4.328;2022-07-23T00:16:00;17.50;99.90
21857;DHT22;11093;50.862;4.328;2022-07-23T00:18:26;17.20;99.90
21857;DHT22;11093;50.862;4.328;2022-07-23T00:20:53;17.00;99.90
21857;DHT22;11093;50.862;4.328;2022-07-23T00:23:19;16.90;99.90
21857;DHT22;11093;50.862;4.328;2022-07-23T00:25:45;16.80;99.90
21857;DHT22;11093;50.862;4.328;2022-07-23T00:28:11;16.70;99.90
21857;DHT22;11093;50.862;4.328;2022-07-23T00:30:37;16.70;99.90
21857;DHT22;11093;50.862;4.328;2022-07-23T00:33:06;16.70;99.90
21857;DHT22;11093;50.862;4.328;2022-07-23T00:35:37;16.70;99.90
21857;DHT22;11093;50.862;4.328;2022-07-23T00:38:04;16.70;99.90
21857;DHT22;11093;50.862;4.328;2022-07-23T00:40:30;16.70;99.90
21857;DHT22;11093;50.862;4.328;2022-07-23T00:42:56;16.70;99.90
21857;DHT22;11093;50.862;4.328;2022-07-23T00:45:22;16.70;99.90
21857;DHT22;11093;50.862;4.328;2022-07-23T00:47:48;16.70;99.90
21857;DHT22;11093;50.862;4.328;2022-07-23T00:50:14;16.70;99.90
21857;DHT22;11093;50.862;4.328;2022-07-23T00:52:40;16.80;99.90
21857;DHT22;11093;50.862;4.328;2022-07-23T00:55:07;16.60;99.90
21857;DHT22;11093;50.862;4.328;2022-07-23T00:57:33;17.00;99.90
21857;DHT22;11093;50.862;4.328;2022-07-23T00:59:59;17.00;99.90
21857;DHT22;11093;50.862;4.328;2022-07-23T01:02:27;16.80;99.90
21857;DHT22;11093;50.862;4.328;2022-07-23T01:04:53;16.70;99.90
21857;DHT22;11093;50.862;4.328;2022-07-23T01:07:19;16.60;99.90
21857;DHT22;11093;50.862;4.328;2022-07-23T01:09:45;16.60;99.90
21857;DHT22;11093;50.862;4.328;2022-07-23T01:12:12;16.50;99.90
21857;DHT22;11093;50.862;4.328;2022-07-23T01:14:38;16.40;99.90
21857;DHT22;11093;50.862;4.328;2022-07-23T01:17:04;16.40;99.90
21857;DHT22;11093;50.862;4.328;2022-07-23T01:19:29;16.30;99.90
21857;DHT22;11093;50.862;4.328;2022-07-23T01:21:58;16.20;99.90
21857;DHT22;11093;50.862;4.328;2022-07-23T01:24:26;16.20;99.90
21857;DHT22;11093;50.862;4.328;2022-07-23T01:26:53;16.10;99.90
21857;DHT22;11093;50.862;4.328;2022-07-23T01:29:18;16.10;99.90
21857;DHT22;11093;50.862;4.328;2022-07-23T01:31:46;16.10;99.90
21857;DHT22;11093;50.862;4.328;2022-07-23T01:34:12;16.10;99.90
21857;DHT22;11093;50.862;4.328;2022-07-23T01:36:38;16.10;99.90
21857;DHT22;11093;50.862;4.328;2022-07-23T01:39:05;16.10;99.90
21857;DHT22;11093;50.862;4.328;2022-07-23T01:41:31;16.30;99.90
21857;DHT22;11093;50.862;4.328;2022-07-23T01:43:57;16.10;99.90
21857;DHT22;11093;50.862;4.328;2022-07-23T01:46:23;16.10;99.90
21857;DHT22;11093;50.862;4.328;2022-07-23T01:48:48;16.20;99.90
21857;DHT22;11093;50.862;4.328;2022-07-23T01:51:14;16.10;99.90
21857;DHT22;11093;50.862;4.328;2022-07-23T01:53:40;16.10;99.90
21857;DHT22;11093;50.862;4.328;2022-07-23T01:56:06;16.10;99.90
21857;DHT22;11093;50.862;4.328;2022-07-23T01:58:32;16.00;99.90
21857;DHT22;11093;50.862;4.328;2022-07-23T02:00:58;16.10;99.90
21857;DHT22;11093;50.862;4.328;2022-07-23T02:03:24;16.00;99.90
21857;DHT22;11093;50.862;4.328;2022-07-23T02:05:50;16.10;99.90
21857;DHT22;11093;50.862;4.328;2022-07-23T02:08:16;16.10;99.90
21857;DHT22;11093;50.862;4.328;2022-07-23T02:10:42;16.10;99.90
21857;DHT22;11093;50.862;4.328;2022-07-23T02:13:07;16.10;99.90
21857;DHT22;11093;50.862;4.328;2022-07-23T02:15:33;16.10;99.90
21857;DHT22;11093;50.862;4.328;2022-07-23T02:17:59;16.00;99.90
21857;DHT22;11093;50.862;4.328;2022-07-23T02:20:25;15.90;99.90
21857;DHT22;11093;50.862;4.328;2022-07-23T02:22:50;15.90;99.90
21857;DHT22;11093;50.862;4.328;2022-07-23T02:25:16;15.90;99.90
21857;DHT22;11093;50.862;4.328;2022-07-23T02:27:42;15.90;99.90
21857;DHT22;11093;50.862;4.328;2022-07-23T02:30:08;15.90;99.90
21857;DHT22;11093;50.862;4.328;2022-07-23T02:32:35;15.90;99.90
21857;DHT22;11093;50.862;4.328;2022-07-23T02:35:01;15.90;99.90
21857;DHT22;11093;50.862;4.328;2022-07-23T02:37:27;15.90;99.90
21857;DHT22;11093;50.862;4.328;2022-07-23T02:39:53;15.90;99.90
21857;DHT22;11093;50.862;4.328;2022-07-23T02:42:18;15.90;99.90
21857;DHT22;11093;50.862;4.328;2022-07-23T02:44:44;16.10;99.90
21857;DHT22;11093;50.862;4.328;2022-07-23T02:47:10;16.30;99.90
21857;DHT22;11093;50.862;4.328;2022-07-23T02:49:35;16.30;99.90
21857;DHT22;11093;50.862;4.328;2022-07-23T02:52:01;16.40;99.90
21857;DHT22;11093;50.862;4.328;2022-07-23T02:54:27;16.40;99.90
21857;DHT22;11093;50.862;4.328;2022-07-23T02:56:52;16.30;99.90
21857;DHT22;11093;50.862;4.328;2022-07-23T02:59:18;16.30;99.90
21857;DHT22;11093;50.862;4.328;2022-07-23T03:01:44;16.30;99.90
21857;DHT22;11093;50.862;4.328;2022-07-23T03:04:10;16.30;99.90
21857;DHT22;11093;50.862;4.328;2022-07-23T03:06:36;16.30;99.90
21857;DHT22;11093;50.862;4.328;2022-07-23T03:09:03;16.10;99.90
21857;DHT22;11093;50.862;4.328;2022-07-23T03:11:28;16.00;99.90
21857;DHT22;11093;50.862;4.328;2022-07-23T03:13:54;15.90;99.90
21857;DHT22;11093;50.862;4.328;2022-07-23T03:16:20;15.80;99.90
21857;DHT22;11093;50.862;4.328;2022-07-23T03:18:46;15.80;99.90
21857;DHT22;11093;50.862;4.328;2022-07-23T03:21:11;15.80;99.90
21857;DHT22;11093;50.862;4.328;2022-07-23T03:23:37;15.80;99.90
21857;DHT22;11093;50.862;4.328;2022-07-23T03:26:03;16.00;99.90
21857;DHT22;11093;50.862;4.328;2022-07-23T03:28:29;15.90;99.90
21857;DHT22;11093;50.862;4.328;2022-07-23T03:30:54;15.90;99.90
21857;DHT22;11093;50.862;4.328;2022-07-23T03:33:20;15.80;99.90
21857;DHT22;11093;50.862;4.328;2022-07-23T03:35:48;15.90;99.90
21857;DHT22;11093;50.862;4.328;2022-07-23T03:38:14;16.00;99.90
21857;DHT22;11093;50.862;4.328;2022-07-23T03:40:41;16.30;99.90
21857;DHT22;11093;50.862;4.328;2022-07-23T03:43:07;16.40;99.90
21857;DHT22;11093;50.862;4.328;2022-07-23T03:45:33;16.50;99.90
21857;DHT22;11093;50.862;4.328;2022-07-23T03:47:58;16.70;99.90
21857;DHT22;11093;50.862;4.328;2022-07-23T03:50:24;16.70;99.90
21857;DHT22;11093;50.862;4.328;2022-07-23T03:52:50;16.60;99.90
21857;DHT22;11093;50.862;4.328;2022-07-23T03:55:15;16.70;99.90
21857;DHT22;11093;50.862;4.328;2022-07-23T03:57:44;16.80;99.90
21857;DHT22;11093;50.862;4.328;2022-07-23T04:00:11;16.80;99.90
21857;DHT22;11093;50.862;4.328;2022-07-23T04:02:38;16.90;99.90
21857;DHT22;11093;50.862;4.328;2022-07-23T04:05:05;16.90;99.90
21857;DHT22;11093;50.862;4.328;2022-07-23T04:07:30;16.90;99.90
21857;DHT22;11093;50.862;4.328;2022-07-23T04:09:56;16.80;99.90
21857;DHT22;11093;50.862;4.328;2022-07-23T04:12:23;16.90;99.90
21857;DHT22;11093;50.862;4.328;2022-07-23T04:14:49;16.80;99.90
21857;DHT22;11093;50.862;4.328;2022-07-23T04:17:14;16.80;99.90
21857;DHT22;11093;50.862;4.328;2022-07-23T04:19:41;16.80;99.90
21857;DHT22;11093;50.862;4.328;2022-07-23T04:22:08;16.80;99.90
21857;DHT22;11093;50.862;4.328;2022-07-23T04:24:34;16.80;99.90
21857;DHT22;11093;50.862;4.328;2022-07-23T04:27:01;16.80;99.90
21857;DHT22;11093;50.862;4.328;2022-07-23T04:29:27;16.90;99.90
21857;DHT22;11093;50.862;4.328;2022-07-23T04:31:53;16.80;99.90
21857;DHT22;11093;50.862;4.328;2022-07-23T04:34:19;17.00;99.90
21857;DHT22;11093;50.862;4.328;2022-07-23T04:36:44;17.10;99.90
21857;DHT22;11093;50.862;4.328;2022-07-23T04:39:10;17.20;99.90
21857;DHT22;11093;50.862;4.328;2022-07-23T04:41:36;17.30;99.90
21857;DHT22;11093;50.862;4.328;2022-07-23T04:44:02;17.40;99.90
21857;DHT22;11093;50.862;4.328;2022-07-23T04:46:28;17.40;99.90
21857;DHT22;11093;50.862;4.328;2022-07-23T04:48:54;17.10;99.90
21857;DHT22;11093;50.862;4.328;2022-07-23T04:51:20;17.60;99.90
21857;DHT22;11093;50.862;4.328;2022-07-23T04:53:46;17.90;99.90
21857;DHT22;11093;50.862;4.328;2022-07-23T04:56:12;18.20;99.90
21857;DHT22;11093;50.862;4.328;2022-07-23T04:58:38;18.60;99.90
21857;DHT22;11093;50.862;4.328;2022-07-23T05:01:03;18.70;99.90
21857;DHT22;11093;50.862;4.328;2022-07-23T05:03:29;18.60;99.90
21857;DHT22;11093;50.862;4.328;2022-07-23T05:05:55;18.70;99.90
21857;DHT22;11093;50.862;4.328;2022-07-23T05:08:21;19.10;99.90
21857;DHT22;11093;50.862;4.328;2022-07-23T05:10:46;19.50;99.90
21857;DHT22;11093;50.862;4.328;2022-07-23T05:13:14;19.90;99.90
21857;DHT22;11093;50.862;4.328;2022-07-23T05:15:41;20.30;99.90
21857;DHT22;11093;50.862;4.328;2022-07-23T05:18:07;20.40;99.90
21857;DHT22;11093;50.862;4.328;2022-07-23T05:20:32;20.70;99.90
21857;DHT22;11093;50.862;4.328;2022-07-23T05:22:58;21.10;99.90
21857;DHT22;11093;50.862;4.328;2022-07-23T05:25:23;20.80;99.90
21857;DHT22;11093;50.862;4.328;2022-07-23T05:27:49;20.20;99.90
21857;DHT22;11093;50.862;4.328;2022-07-23T05:30:15;19.40;99.90
21857;DHT22;11093;50.862;4.328;2022-07-23T05:32:40;19.00;99.90
21857;DHT22;11093;50.862;4.328;2022-07-23T05:35:07;18.80;99.90
21857;DHT22;11093;50.862;4.328;2022-07-23T05:37:33;18.50;99.90
21857;DHT22;11093;50.862;4.328;2022-07-23T05:40:03;18.00;99.90
21857;DHT22;11093;50.862;4.328;2022-07-23T05:42:29;18.00;99.90
21857;DHT22;11093;50.862;4.328;2022-07-23T05:44:55;18.30;99.90
21857;DHT22;11093;50.862;4.328;2022-07-23T05:47:20;18.30;99.90
21857;DHT22;11093;50.862;4.328;2022-07-23T05:49:46;18.10;99.90
21857;DHT22;11093;50.862;4.328;2022-07-23T05:52:12;18.00;99.90
21857;DHT22;11093;50.862;4.328;2022-07-23T05:54:37;18.10;99.90
21857;DHT22;11093;50.862;4.328;2022-07-23T05:57:03;18.30;99.90
21857;DHT22;11093;50.862;4.328;2022-07-23T05:59:30;18.50;99.90
21857;DHT22;11093;50.862;4.328;2022-07-23T06:01:55;18.70;99.90
21857;DHT22;11093;50.862;4.328;2022-07-23T06:04:21;18.80;99.90
21857;DHT22;11093;50.862;4.328;2022-07-23T06:06:47;19.70;99.90
21857;DHT22;11093;50.862;4.328;2022-07-23T06:09:12;20.40;99.90
21857;DHT22;11093;50.862;4.328;2022-07-23T06:11:39;20.80;99.90
21857;DHT22;11093;50.862;4.328;2022-07-23T06:14:05;21.00;99.90
21857;DHT22;11093;50.862;4.328;2022-07-23T06:16:31;21.30;99.90
21857;DHT22;11093;50.862;4.328;2022-07-23T06:18:57;21.90;99.90
21857;DHT22;11093;50.862;4.328;2022-07-23T06:21:22;22.40;99.90
21857;DHT22;11093;50.862;4.328;2022-07-23T06:23:48;23.00;99.90
21857;DHT22;11093;50.862;4.328;2022-07-23T06:26:14;23.20;99.90
21857;DHT22;11093;50.862;4.328;2022-07-23T06:28:39;23.30;99.90
21857;DHT22;11093;50.862;4.328;2022-07-23T06:31:05;23.40;99.90
21857;DHT22;11093;50.862;4.328;2022-07-23T06:33:30;24.60;99.90
21857;DHT22;11093;50.862;4.328;2022-07-23T06:35:56;25.80;99.90
21857;DHT22;11093;50.862;4.328;2022-07-23T06:38:22;26.10;99.90
21857;DHT22;11093;50.862;4.328;2022-07-23T06:40:47;27.00;99.90
21857;DHT22;11093;50.862;4.328;2022-07-23T06:43:13;27.60;99.90
21857;DHT22;11093;50.862;4.328;2022-07-23T06:45:38;28.50;99.90
21857;DHT22;11093;50.862;4.328;2022-07-23T06:48:04;27.50;99.90
21857;DHT22;11093;50.862;4.328;2022-07-23T06:50:30;28.20;99.90
21857;DHT22;11093;50.862;4.328;2022-07-23T06:52:55;28.60;99.90
21857;DHT22;11093;50.862;4.328;2022-07-23T06:55:21;28.20;99.90
21857;DHT22;11093;50.862;4.328;2022-07-23T06:57:47;28.00;99.90
21857;DHT22;11093;50.862;4.328;2022-07-23T07:00:13;28.50;99.90
21857;DHT22;11093;50.862;4.328;2022-07-23T07:02:38;30.50;99.90
21857;DHT22;11093;50.862;4.328;2022-07-23T07:05:05;29.30;99.90
21857;DHT22;11093;50.862;4.328;2022-07-23T07:07:31;28.40;99.90
21857;DHT22;11093;50.862;4.328;2022-07-23T07:09:57;28.50;99.90
21857;DHT22;11093;50.862;4.328;2022-07-23T07:12:22;28.90;99.90
21857;DHT22;11093;50.862;4.328;2022-07-23T07:14:48;29.20;98.10
21857;DHT22;11093;50.862;4.328;2022-07-23T07:17:14;28.30;99.60
21857;DHT22;11093;50.862;4.328;2022-07-23T07:19:41;29.10;99.80
21857;DHT22;11093;50.862;4.328;2022-07-23T07:22:06;28.70;98.30
21857;DHT22;11093;50.862;4.328;2022-07-23T07:24:32;28.80;97.60
21857;DHT22;11093;50.862;4.328;2022-07-23T07:26:58;28.20;99.70
21857;DHT22;11093;50.862;4.328;2022-07-23T07:29:23;28.60;98.50
21857;DHT22;11093;50.862;4.328;2022-07-23T07:31:49;29.20;98.00
21857;DHT22;11093;50.862;4.328;2022-07-23T07:34:14;29.80;96.10
21857;DHT22;11093;50.862;4.328;2022-07-23T07:36:40;29.40;95.50
21857;DHT22;11093;50.862;4.328;2022-07-23T07:39:06;29.50;95.80
21857;DHT22;11093;50.862;4.328;2022-07-23T07:41:33;29.10;96.50
21857;DHT22;11093;50.862;4.328;2022-07-23T07:43:59;30.50;95.00
21857;DHT22;11093;50.862;4.328;2022-07-23T07:46:24;30.80;93.90
21857;DHT22;11093;50.862;4.328;2022-07-23T07:48:53;31.20;92.30
21857;DHT22;11093;50.862;4.328;2022-07-23T07:51:18;32.00;90.40
21857;DHT22;11093;50.862;4.328;2022-07-23T07:53:44;31.60;87.50
21857;DHT22;11093;50.862;4.328;2022-07-23T07:56:10;31.70;87.80
21857;DHT22;11093;50.862;4.328;2022-07-23T07:58:35;31.40;88.60
21857;DHT22;11093;50.862;4.328;2022-07-23T08:01:01;31.90;89.10
21857;DHT22;11093;50.862;4.328;2022-07-23T08:03:28;32.10;84.70
21857;DHT22;11093;50.862;4.328;2022-07-23T08:05:53;32.50;85.00
21857;DHT22;11093;50.862;4.328;2022-07-23T08:08:19;32.80;81.50
21857;DHT22;11093;50.862;4.328;2022-07-23T08:10:45;32.30;82.20
21857;DHT22;11093;50.862;4.328;2022-07-23T08:13:14;32.00;82.70
21857;DHT22;11093;50.862;4.328;2022-07-23T08:15:40;31.20;82.90
21857;DHT22;11093;50.862;4.328;2022-07-23T08:18:06;31.10;86.00
21857;DHT22;11093;50.862;4.328;2022-07-23T08:20:32;31.90;84.00
21857;DHT22;11093;50.862;4.328;2022-07-23T08:23:00;32.00;82.10
21857;DHT22;11093;50.862;4.328;2022-07-23T08:25:30;31.90;82.70
21857;DHT22;11093;50.862;4.328;2022-07-23T08:27:58;31.90;82.80
21857;DHT22;11093;50.862;4.328;2022-07-23T08:30:24;31.90;83.10
21857;DHT22;11093;50.862;4.328;2022-07-23T08:32:51;33.00;79.70
21857;DHT22;11093;50.862;4.328;2022-07-23T08:35:21;33.80;78.10
21857;DHT22;11093;50.862;4.328;2022-07-23T08:37:47;35.30;73.90
21857;DHT22;11093;50.862;4.328;2022-07-23T08:40:13;35.10;70.20
21857;DHT22;11093;50.862;4.328;2022-07-23T08:42:39;34.50;71.20
21857;DHT22;11093;50.862;4.328;2022-07-23T08:45:07;34.40;70.10
21857;DHT22;11093;50.862;4.328;2022-07-23T08:47:36;33.80;70.60
21857;DHT22;11093;50.862;4.328;2022-07-23T08:50:02;33.30;70.70
21857;DHT22;11093;50.862;4.328;2022-07-23T08:52:30;31.60;75.60
21857;DHT22;11093;50.862;4.328;2022-07-23T08:54:57;30.40;78.40
21857;DHT22;11093;50.862;4.328;2022-07-23T08:57:23;31.10;78.40
21857;DHT22;11093;50.862;4.328;2022-07-23T08:59:49;31.70;76.90
21857;DHT22;11093;50.862;4.328;2022-07-23T09:02:14;33.40;73.00
21857;DHT22;11093;50.862;4.328;2022-07-23T09:04:40;32.30;71.80
21857;DHT22;11093;50.862;4.328;2022-07-23T09:07:06;32.30;72.10
21857;DHT22;11093;50.862;4.328;2022-07-23T09:09:31;33.80;70.70
21857;DHT22;11093;50.862;4.328;2022-07-23T09:12:16;34.40;67.70
21857;DHT22;11093;50.862;4.328;2022-07-23T09:14:44;35.40;65.00
21857;DHT22;11093;50.862;4.328;2022-07-23T09:17:17;34.80;66.00
21857;DHT22;11093;50.862;4.328;2022-07-23T09:19:45;35.20;64.20
21857;DHT22;11093;50.862;4.328;2022-07-23T09:22:22;34.50;65.00
21857;DHT22;11093;50.862;4.328;2022-07-23T09:25:09;34.10;65.00
21857;DHT22;11093;50.862;4.328;2022-07-23T09:27:56;34.20;64.20
21857;DHT22;11093;50.862;4.328;2022-07-23T09:30:27;34.30;63.70
21857;DHT22;11093;50.862;4.328;2022-07-23T09:33:11;32.90;65.70
21857;DHT22;11093;50.862;4.328;2022-07-23T09:38:10;32.70;67.30
21857;DHT22;11093;50.862;4.328;2022-07-23T09:40:35;31.80;68.20
21857;DHT22;11093;50.862;4.328;2022-07-23T09:43:01;32.80;67.30
21857;DHT22;11093;50.862;4.328;2022-07-23T09:45:27;32.20;66.90
21857;DHT22;11093;50.862;4.328;2022-07-23T09:48:12;32.90;66.80
21857;DHT22;11093;50.862;4.328;2022-07-23T09:50:40;34.20;64.80
21857;DHT22;11093;50.862;4.328;2022-07-23T09:53:06;33.70;62.20
21857;DHT22;11093;50.862;4.328;2022-07-23T09:55:34;32.80;65.10
21857;DHT22;11093;50.862;4.328;2022-07-23T09:58:07;33.90;64.50
21857;DHT22;11093;50.862;4.328;2022-07-23T10:00:49;34.40;62.30
21857;DHT22;11093;50.862;4.328;2022-07-23T10:03:16;35.90;61.00
21857;DHT22;11093;50.862;4.328;2022-07-23T10:05:44;36.80;58.20
21857;DHT22;11093;50.862;4.328;2022-07-23T10:08:12;37.30;56.20
21857;DHT22;11093;50.862;4.328;2022-07-23T10:10:39;37.70;55.90
21857;DHT22;11093;50.862;4.328;2022-07-23T10:13:05;36.70;56.20
21857;DHT22;11093;50.862;4.328;2022-07-23T10:15:48;36.30;56.40
21857;DHT22;11093;50.862;4.328;2022-07-23T10:18:15;35.00;58.00
21857;DHT22;11093;50.862;4.328;2022-07-23T10:20:43;35.20;58.70
21857;DHT22;11093;50.862;4.328;2022-07-23T10:23:33;36.40;56.50
21857;DHT22;11093;50.862;4.328;2022-07-23T10:26:17;34.80;57.50
21857;DHT22;11093;50.862;4.328;2022-07-23T10:31:58;35.40;56.90
21857;DHT22;11093;50.862;4.328;2022-07-23T10:37:14;35.20;57.40
21857;DHT22;11093;50.862;4.328;2022-07-23T10:40:13;35.90;56.70
21857;DHT22;11093;50.862;4.328;2022-07-23T10:42:42;36.00;55.40
21857;DHT22;11093;50.862;4.328;2022-07-23T10:45:34;35.70;54.60
21857;DHT22;11093;50.862;4.328;2022-07-23T10:48:24;35.80;55.30
21857;DHT22;11093;50.862;4.328;2022-07-23T10:51:11;36.50;55.00
21857;DHT22;11093;50.862;4.328;2022-07-23T10:56:15;36.70;53.70
21857;DHT22;11093;50.862;4.328;2022-07-23T10:58:49;36.50;54.10
21857;DHT22;11093;50.862;4.328;2022-07-23T11:01:35;36.30;54.50
21857;DHT22;11093;50.862;4.328;2022-07-23T11:04:02;36.80;53.00
21857;DHT22;11093;50.862;4.328;2022-07-23T11:09:43;36.90;52.50
21857;DHT22;11093;50.862;4.328;2022-07-23T11:15:12;36.40;52.60
21857;DHT22;11093;50.862;4.328;2022-07-23T11:20:22;36.30;52.50
21857;DHT22;11093;50.862;4.328;2022-07-23T11:22:51;36.00;53.00
21857;DHT22;11093;50.862;4.328;2022-07-23T11:25:30;35.10;53.70
21857;DHT22;11093;50.862;4.328;2022-07-23T11:28:17;34.50;54.80
21857;DHT22;11093;50.862;4.328;2022-07-23T11:30:44;35.10;54.70
21857;DHT22;11093;50.862;4.328;2022-07-23T11:35:44;34.90;55.20
21857;DHT22;11093;50.862;4.328;2022-07-23T11:38:18;35.90;54.40
21857;DHT22;11093;50.862;4.328;2022-07-23T11:40:47;36.90;52.70
21857;DHT22;11093;50.862;4.328;2022-07-23T11:43:13;36.70;53.60
21857;DHT22;11093;50.862;4.328;2022-07-23T11:45:41;37.20;52.00
21857;DHT22;11093;50.862;4.328;2022-07-23T11:48:29;36.10;53.20
21857;DHT22;11093;50.862;4.328;2022-07-23T11:50:57;37.30;52.80
21857;DHT22;11093;50.862;4.328;2022-07-23T11:53:33;35.30;52.90
21857;DHT22;11093;50.862;4.328;2022-07-23T11:56:09;33.40;56.00
21857;DHT22;11093;50.862;4.328;2022-07-23T11:58:35;33.80;56.50
21857;DHT22;11093;50.862;4.328;2022-07-23T12:01:03;33.20;56.70
21857;DHT22;11093;50.862;4.328;2022-07-23T12:03:28;33.30;57.20
21857;DHT22;11093;50.862;4.328;2022-07-23T12:05:58;33.40;56.80
21857;DHT22;11093;50.862;4.328;2022-07-23T12:08:24;34.70;55.40
21857;DHT22;11093;50.862;4.328;2022-07-23T12:10:50;35.00;54.80
21857;DHT22;11093;50.862;4.328;2022-07-23T12:13:20;34.20;55.10
21857;DHT22;11093;50.862;4.328;2022-07-23T12:15:52;32.90;56.90
21857;DHT22;11093;50.862;4.328;2022-07-23T12:18:24;32.00;57.50
21857;DHT22;11093;50.862;4.328;2022-07-23T12:20:52;33.00;58.40
21857;DHT22;11093;50.862;4.328;2022-07-23T12:23:20;33.10;57.20
21857;DHT22;11093;50.862;4.328;2022-07-23T12:25:47;31.90;59.00
21857;DHT22;11093;50.862;4.328;2022-07-23T12:28:33;32.20;59.50
21857;DHT22;11093;50.862;4.328;2022-07-23T12:30:59;31.70;60.00
21857;DHT22;11093;50.862;4.328;2022-07-23T12:33:26;33.40;59.20
21857;DHT22;11093;50.862;4.328;2022-07-23T12:35:54;33.90;57.50
21857;DHT22;11093;50.862;4.328;2022-07-23T12:38:22;34.40;56.90
21857;DHT22;11093;50.862;4.328;2022-07-23T12:40:53;34.10;56.10
21857;DHT22;11093;50.862;4.328;2022-07-23T12:46:10;34.10;55.70
21857;DHT22;11093;50.862;4.328;2022-07-23T12:48:52;33.90;56.90
21857;DHT22;11093;50.862;4.328;2022-07-23T12:53:50;33.60;57.30
21857;DHT22;11093;50.862;4.328;2022-07-23T12:56:27;34.10;55.20
21857;DHT22;11093;50.862;4.328;2022-07-23T12:58:59;34.00;54.80
21857;DHT22;11093;50.862;4.328;2022-07-23T13:01:34;32.50;57.70
21857;DHT22;11093;50.862;4.328;2022-07-23T13:04:10;32.20;59.40
21857;DHT22;11093;50.862;4.328;2022-07-23T13:06:41;33.10;58.70
21857;DHT22;11093;50.862;4.328;2022-07-23T13:09:11;33.30;58.60
21857;DHT22;11093;50.862;4.328;2022-07-23T13:11:39;33.10;58.50
21857;DHT22;11093;50.862;4.328;2022-07-23T13:14:05;33.00;59.10
21857;DHT22;11093;50.862;4.328;2022-07-23T13:16:39;33.00;58.70
21857;DHT22;11093;50.862;4.328;2022-07-23T13:19:06;33.50;58.40
21857;DHT22;11093;50.862;4.328;2022-07-23T13:21:34;33.80;57.50
21857;DHT22;11093;50.862;4.328;2022-07-23T13:24:00;33.10;57.50
21857;DHT22;11093;50.862;4.328;2022-07-23T13:27:03;33.50;57.40
21857;DHT22;11093;50.862;4.328;2022-07-23T13:29:53;32.00;58.70
21857;DHT22;11093;50.862;4.328;2022-07-23T13:32:19;31.30;61.40
21857;DHT22;11093;50.862;4.328;2022-07-23T13:35:03;30.80;63.90
21857;DHT22;11093;50.862;4.328;2022-07-23T13:37:30;30.40;64.90
21857;DHT22;11093;50.862;4.328;2022-07-23T13:39:56;30.60;64.90
21857;DHT22;11093;50.862;4.328;2022-07-23T13:42:21;30.80;64.90
21857;DHT22;11093;50.862;4.328;2022-07-23T13:47:33;30.70;64.50
21857;DHT22;11093;50.862;4.328;2022-07-23T13:49:59;30.20;67.20
21857;DHT22;11093;50.862;4.328;2022-07-23T13:52:30;30.30;66.00
21857;DHT22;11093;50.862;4.328;2022-07-23T13:55:03;30.50;66.20
21857;DHT22;11093;50.862;4.328;2022-07-23T13:57:31;30.90;65.30
21857;DHT22;11093;50.862;4.328;2022-07-23T13:59:57;29.10;64.00
21857;DHT22;11093;50.862;4.328;2022-07-23T14:02:23;31.20;65.30
21857;DHT22;11093;50.862;4.328;2022-07-23T14:04:49;31.00;66.00
21857;DHT22;11093;50.862;4.328;2022-07-23T14:07:15;30.80;65.20
21857;DHT22;11093;50.862;4.328;2022-07-23T14:09:41;30.70;67.10
21857;DHT22;11093;50.862;4.328;2022-07-23T14:12:07;30.60;67.10
21857;DHT22;11093;50.862;4.328;2022-07-23T14:14:34;30.50;66.40
21857;DHT22;11093;50.862;4.328;2022-07-23T14:17:01;30.40;66.80
21857;DHT22;11093;50.862;4.328;2022-07-23T14:19:29;30.30;69.00
21857;DHT22;11093;50.862;4.328;2022-07-23T14:21:54;30.20;67.60
21857;DHT22;11093;50.862;4.328;2022-07-23T14:24:20;29.90;67.40
21857;DHT22;11093;50.862;4.328;2022-07-23T14:26:46;29.80;68.80
21857;DHT22;11093;50.862;4.328;2022-07-23T14:29:12;29.90;68.90
21857;DHT22;11093;50.862;4.328;2022-07-23T14:31:39;30.20;67.70
21857;DHT22;11093;50.862;4.328;2022-07-23T14:34:04;30.60;66.80
21857;DHT22;11093;50.862;4.328;2022-07-23T14:36:30;30.60;65.60
21857;DHT22;11093;50.862;4.328;2022-07-23T14:38:56;30.80;66.90
21857;DHT22;11093;50.862;4.328;2022-07-23T14:41:23;30.80;66.60
21857;DHT22;11093;50.862;4.328;2022-07-23T14:43:48;30.50;66.40
21857;DHT22;11093;50.862;4.328;2022-07-23T14:46:14;30.60;66.50
21857;DHT22;11093;50.862;4.328;2022-07-23T14:48:40;30.50;66.70
21857;DHT22;11093;50.862;4.328;2022-07-23T14:51:06;30.50;67.30
21857;DHT22;11093;50.862;4.328;2022-07-23T14:53:31;30.60;68.00
21857;DHT22;11093;50.862;4.328;2022-07-23T14:55:57;30.70;66.10
21857;DHT22;11093;50.862;4.328;2022-07-23T14:58:23;30.30;66.90
21857;DHT22;11093;50.862;4.328;2022-07-23T15:00:50;30.10;68.50
21857;DHT22;11093;50.862;4.328;2022-07-23T15:03:15;30.00;69.00
21857;DHT22;11093;50.862;4.328;2022-07-23T15:05:41;30.10;68.50
21857;DHT22;11093;50.862;4.328;2022-07-23T15:08:07;29.90;68.80
21857;DHT22;11093;50.862;4.328;2022-07-23T15:10:33;29.90;68.20
21857;DHT22;11093;50.862;4.328;2022-07-23T15:12:58;30.30;67.90
21857;DHT22;11093;50.862;4.328;2022-07-23T15:18:02;30.10;66.50
21857;DHT22;11093;50.862;4.328;2022-07-23T15:20:27;29.90;67.70
21857;DHT22;11093;50.862;4.328;2022-07-23T15:22:53;29.50;68.60
21857;DHT22;11093;50.862;4.328;2022-07-23T15:25:18;29.50;69.80
21857;DHT22;11093;50.862;4.328;2022-07-23T15:27:47;29.70;68.90
21857;DHT22;11093;50.862;4.328;2022-07-23T15:30:13;29.70;68.60
21857;DHT22;11093;50.862;4.328;2022-07-23T15:32:39;29.80;68.00
21857;DHT22;11093;50.862;4.328;2022-07-23T15:35:05;29.30;68.80
21857;DHT22;11093;50.862;4.328;2022-07-23T15:37:35;28.70;70.60
21857;DHT22;11093;50.862;4.328;2022-07-23T15:40:02;28.60;72.00
21857;DHT22;11093;50.862;4.328;2022-07-23T15:42:31;28.80;72.90
21857;DHT22;11093;50.862;4.328;2022-07-23T15:44:56;29.10;71.50
21857;DHT22;11093;50.862;4.328;2022-07-23T15:47:23;29.50;71.70
21857;DHT22;11093;50.862;4.328;2022-07-23T15:49:50;29.10;71.80
21857;DHT22;11093;50.862;4.328;2022-07-23T15:52:20;28.80;72.50
21857;DHT22;11093;50.862;4.328;2022-07-23T15:54:47;29.00;72.30
21857;DHT22;11093;50.862;4.328;2022-07-23T15:57:16;29.20;71.90
21857;DHT22;11093;50.862;4.328;2022-07-23T15:59:42;29.50;71.50
21857;DHT22;11093;50.862;4.328;2022-07-23T16:02:08;29.00;71.50
21857;DHT22;11093;50.862;4.328;2022-07-23T16:04:34;29.30;71.10
21857;DHT22;11093;50.862;4.328;2022-07-23T16:07:00;29.10;72.00